createdAt,value
2023-05-25T00:01:02.017Z,16.67
2023-05-25T00:03:31.473Z,16.66
2023-05-25T00:05:59.001Z,16.69
2023-05-25T00:08:25.501Z,16.70
2023-05-25T00:10:51.969Z,16.72
2023-05-25T00:13:18.470Z,16.74
2023-05-25T00:15:45.410Z,16.75
2023-05-25T00:18:13.095Z,16.77
2023-05-25T00:20:39.970Z,16.78
2023-05-25T00:23:06.397Z,16.78
2023-05-25T00:25:32.774Z,16.79
2023-05-25T00:27:59.125Z,16.79
2023-05-25T00:30:25.760Z,16.80
2023-05-25T00:32:53.999Z,16.80
2023-05-25T00:35:20.824Z,16.80
2023-05-25T00:37:47.621Z,16.80
2023-05-25T00:40:18.833Z,16.78
2023-05-25T00:42:47.992Z,16.77
2023-05-25T00:45:14.629Z,16.71
2023-05-25T00:47:41.513Z,16.69
2023-05-25T00:50:09.701Z,16.64
2023-05-25T00:52:36.436Z,16.63
2023-05-25T00:55:03.523Z,16.58
2023-05-25T00:57:34.094Z,16.56
2023-05-25T01:00:02.245Z,16.53
2023-05-25T01:02:29.208Z,16.51
2023-05-25T01:04:59.833Z,16.49
2023-05-25T01:07:27.979Z,16.44
2023-05-25T01:09:58.640Z,16.40
2023-05-25T01:12:35.221Z,16.37
2023-05-25T01:15:04.523Z,16.35
2023-05-25T01:17:30.954Z,16.32
2023-05-25T01:22:34.112Z,16.23
2023-05-25T01:25:07.186Z,16.19
2023-05-25T01:27:43.591Z,16.16
2023-05-25T01:30:13.991Z,16.16
2023-05-25T01:32:42.721Z,16.16
2023-05-25T01:35:10.048Z,16.14
2023-05-25T01:37:37.661Z,16.13
2023-05-25T01:40:08.493Z,16.10
2023-05-25T01:42:34.978Z,16.07
2023-05-25T01:45:01.716Z,16.05
2023-05-25T01:47:37.473Z,16.01
2023-05-25T01:50:29.456Z,15.96
2023-05-25T01:53:15.622Z,15.94
2023-05-25T01:55:54.888Z,15.92
2023-05-25T01:58:23.338Z,15.92
2023-05-25T02:00:51.525Z,15.91
2023-05-25T02:03:18.692Z,15.89
2023-05-25T02:05:46.365Z,15.87
2023-05-25T02:08:13.088Z,15.85
2023-05-25T02:10:39.539Z,15.85
2023-05-25T02:13:06.038Z,15.86
2023-05-25T02:15:33.821Z,15.84
2023-05-25T02:18:00.768Z,15.83
2023-05-25T02:20:28.425Z,15.82
2023-05-25T02:22:55.210Z,15.80
2023-05-25T02:25:21.645Z,15.77
2023-05-25T02:27:48.296Z,15.75
2023-05-25T02:30:15.064Z,15.73
2023-05-25T02:32:41.754Z,15.72
2023-05-25T02:35:08.519Z,15.70
2023-05-25T02:37:35.331Z,15.69
2023-05-25T02:40:01.838Z,15.68
2023-05-25T02:42:28.471Z,15.67
2023-05-25T02:44:54.885Z,15.65
2023-05-25T02:47:21.778Z,15.63
2023-05-25T02:49:48.457Z,15.60
2023-05-25T02:52:14.817Z,15.59
2023-05-25T02:54:41.915Z,15.55
2023-05-25T02:57:08.650Z,15.55
2023-05-25T02:59:35.138Z,15.53
2023-05-25T03:02:01.527Z,15.52
2023-05-25T03:04:28.499Z,15.51
2023-05-25T03:06:54.877Z,15.49
2023-05-25T03:09:21.565Z,15.47
2023-05-25T03:11:48.257Z,15.45
2023-05-25T03:14:14.714Z,15.45
2023-05-25T03:16:42.684Z,15.44
2023-05-25T03:19:10.585Z,15.43
2023-05-25T03:21:37.797Z,15.42
2023-05-25T03:24:05.550Z,15.41
2023-05-25T03:26:32.187Z,15.40
2023-05-25T03:28:58.805Z,15.38
2023-05-25T03:31:26.475Z,15.38
2023-05-25T03:33:53.099Z,15.38
2023-05-25T03:36:19.775Z,15.37
2023-05-25T03:38:46.700Z,15.37
2023-05-25T03:41:13.326Z,15.37
2023-05-25T03:43:39.976Z,15.37
2023-05-25T03:46:08.796Z,15.36
2023-05-25T03:48:35.420Z,15.37
2023-05-25T03:51:01.809Z,15.36
2023-05-25T03:53:28.405Z,15.35
2023-05-25T03:55:55.104Z,15.35
2023-05-25T03:58:22.529Z,15.31
2023-05-25T04:00:52.638Z,15.33
2023-05-25T04:03:21.129Z,15.36
2023-05-25T04:05:47.971Z,15.38
2023-05-25T04:08:18.012Z,15.42
2023-05-25T04:10:46.129Z,15.42
2023-05-25T04:13:14.440Z,15.44
2023-05-25T04:15:41.149Z,15.46
2023-05-25T04:18:07.685Z,15.48
2023-05-25T04:20:34.361Z,15.50
2023-05-25T04:23:00.854Z,15.52
2023-05-25T04:25:29.535Z,15.57
2023-05-25T04:27:56.903Z,15.60
2023-05-25T04:30:23.658Z,15.66
2023-05-25T04:32:50.439Z,15.70
2023-05-25T04:35:17.098Z,15.75
2023-05-25T04:37:43.576Z,15.79
2023-05-25T04:40:14.431Z,15.83
2023-05-25T04:42:41.877Z,15.89
2023-05-25T04:45:10.256Z,15.94
2023-05-25T04:47:37.753Z,16.00
2023-05-25T04:50:04.415Z,16.02
2023-05-25T04:52:30.756Z,16.08
2023-05-25T04:54:59.427Z,16.12
2023-05-25T04:57:28.613Z,16.17
2023-05-25T04:59:55.109Z,16.23
2023-05-25T05:02:21.795Z,16.27
2023-05-25T05:04:48.477Z,16.32
2023-05-25T05:07:14.938Z,16.37
2023-05-25T05:09:44.260Z,16.44
2023-05-25T05:12:12.079Z,16.49
2023-05-25T05:14:38.866Z,16.55
2023-05-25T05:17:05.626Z,16.59
2023-05-25T05:19:33.232Z,16.64
2023-05-25T05:22:01.374Z,16.66
2023-05-25T05:24:30.499Z,16.69
2023-05-25T05:26:58.969Z,16.70
2023-05-25T05:29:27.037Z,16.70
2023-05-25T05:31:55.590Z,16.70
2023-05-25T05:34:22.096Z,16.73
2023-05-25T05:36:57.313Z,16.75
2023-05-25T05:39:27.315Z,16.78
2023-05-25T05:41:54.273Z,16.83
2023-05-25T05:44:21.587Z,16.89
2023-05-25T05:46:48.390Z,16.90
2023-05-25T05:49:15.760Z,16.93
2023-05-25T05:51:42.402Z,16.98
2023-05-25T05:54:08.864Z,17.01
2023-05-25T05:56:37.028Z,17.04
2023-05-25T05:59:05.342Z,17.09
2023-05-25T06:01:34.843Z,17.12
2023-05-25T06:04:01.483Z,17.14
2023-05-25T06:06:28.566Z,17.16
2023-05-25T06:08:55.376Z,17.17
2023-05-25T06:11:22.046Z,17.21
2023-05-25T06:13:48.729Z,17.22
2023-05-25T06:16:15.298Z,17.23
2023-05-25T06:18:41.838Z,17.21
2023-05-25T06:21:08.655Z,17.21
2023-05-25T06:23:35.825Z,17.20
2023-05-25T06:26:06.366Z,17.22
2023-05-25T06:28:34.917Z,17.25
2023-05-25T06:31:02.292Z,17.27
2023-05-25T06:33:28.748Z,17.34
2023-05-25T06:35:58.270Z,17.35
2023-05-25T06:38:24.881Z,17.37
2023-05-25T06:40:51.312Z,17.41
2023-05-25T06:43:19.187Z,17.42
2023-05-25T06:45:46.312Z,17.48
2023-05-25T06:48:12.968Z,17.50
2023-05-25T06:50:40.271Z,17.52
2023-05-25T06:53:06.782Z,17.54
2023-05-25T06:55:33.399Z,17.55
2023-05-25T06:58:00.091Z,17.55
2023-05-25T07:00:26.926Z,17.57
2023-05-25T07:02:53.880Z,17.60
2023-05-25T07:05:20.837Z,17.62
2023-05-25T07:07:48.676Z,17.67
2023-05-25T07:10:15.227Z,17.70
2023-05-25T07:12:41.712Z,17.73
2023-05-25T07:15:08.810Z,17.76
2023-05-25T07:17:36.672Z,17.77
2023-05-25T07:20:04.676Z,17.79
2023-05-25T07:22:32.454Z,17.82
2023-05-25T07:24:59.178Z,17.87
2023-05-25T07:27:26.153Z,17.91
2023-05-25T07:29:52.570Z,17.94
2023-05-25T07:32:19.301Z,17.98
2023-05-25T07:34:45.685Z,18.02
2023-05-25T07:37:12.107Z,18.05
2023-05-25T07:39:40.687Z,18.08
2023-05-25T07:42:07.029Z,18.15
2023-05-25T07:44:33.875Z,18.21
2023-05-25T07:47:00.392Z,18.24
2023-05-25T07:49:28.401Z,18.26
2023-05-25T07:51:55.137Z,18.31
2023-05-25T07:54:21.942Z,18.33
2023-05-25T07:56:48.367Z,18.39
2023-05-25T07:59:14.811Z,18.43
2023-05-25T08:01:41.334Z,18.48
2023-05-25T08:04:08.135Z,18.51
2023-05-25T08:06:34.676Z,18.52
2023-05-25T08:09:02.960Z,18.53
2023-05-25T08:11:29.454Z,18.54
2023-05-25T08:13:55.990Z,18.54
2023-05-25T08:16:24.752Z,18.55
2023-05-25T08:18:51.668Z,18.56
2023-05-25T08:21:18.629Z,18.56
2023-05-25T08:23:45.297Z,18.59
2023-05-25T08:26:29.064Z,18.57
2023-05-25T08:28:58.724Z,18.58
2023-05-25T08:31:25.171Z,18.57
2023-05-25T08:33:52.926Z,18.56
2023-05-25T08:36:19.699Z,18.54
2023-05-25T08:38:46.311Z,18.54
2023-05-25T08:41:13.276Z,18.54
2023-05-25T08:43:41.778Z,18.54
2023-05-25T08:46:09.082Z,18.55
2023-05-25T08:48:41.654Z,18.56
2023-05-25T08:51:11.657Z,18.56
2023-05-25T08:53:40.669Z,18.55
2023-05-25T08:56:13.711Z,18.54
2023-05-25T08:58:46.353Z,18.53
2023-05-25T09:01:18.483Z,18.53
2023-05-25T09:03:46.673Z,18.54
2023-05-25T09:06:14.150Z,18.54
2023-05-25T09:08:41.047Z,18.54
2023-05-25T09:11:08.054Z,18.54
2023-05-25T09:13:35.565Z,18.53
2023-05-25T09:16:02.247Z,18.53
2023-05-25T09:18:28.765Z,18.50
2023-05-25T09:20:55.849Z,18.50
2023-05-25T09:23:24.014Z,18.49
2023-05-25T09:25:51.543Z,18.49
2023-05-25T09:30:53.219Z,18.51
2023-05-25T09:33:20.207Z,18.54
2023-05-25T09:35:49.166Z,18.57
2023-05-25T09:38:17.044Z,18.60
2023-05-25T09:40:44.955Z,18.63
2023-05-25T09:43:17.215Z,18.68
2023-05-25T09:45:52.358Z,18.74
2023-05-25T09:48:23.392Z,18.78
2023-05-25T09:50:51.404Z,18.82
2023-05-25T09:53:18.906Z,18.85
2023-05-25T09:55:53.729Z,18.86
2023-05-25T09:58:24.942Z,18.88
2023-05-25T10:00:54.613Z,18.89
2023-05-25T10:03:21.670Z,18.92
2023-05-25T10:05:48.628Z,18.94
2023-05-25T10:08:17.774Z,18.96
2023-05-25T10:10:45.578Z,19.00
2023-05-25T10:13:13.783Z,19.05
2023-05-25T10:15:43.144Z,19.09
2023-05-25T10:18:12.239Z,19.11
2023-05-25T10:20:38.878Z,19.13
2023-05-25T10:23:10.754Z,19.18
2023-05-25T10:25:44.833Z,19.20
2023-05-25T10:28:18.373Z,19.25
2023-05-25T10:30:45.575Z,19.29
2023-05-25T10:33:12.622Z,19.33
2023-05-25T10:36:01.538Z,19.37
2023-05-25T10:38:31.474Z,19.45
2023-05-25T10:40:59.220Z,19.55
2023-05-25T10:43:27.919Z,19.63
2023-05-25T10:45:56.907Z,19.67
2023-05-25T10:48:34.942Z,19.72
2023-05-25T10:51:01.572Z,19.77
2023-05-25T10:53:29.358Z,19.81
2023-05-25T10:56:22.388Z,19.85
2023-05-25T10:58:49.172Z,19.93
2023-05-25T11:01:16.135Z,19.94
2023-05-25T11:03:50.267Z,19.95
2023-05-25T11:06:22.147Z,19.95
2023-05-25T11:08:56.455Z,19.98
2023-05-25T11:11:49.771Z,19.97
2023-05-25T11:14:30.544Z,20.03
2023-05-25T11:17:18.723Z,20.07
2023-05-25T11:19:53.635Z,20.15
2023-05-25T11:22:31.241Z,20.20
2023-05-25T11:24:59.864Z,20.27
2023-05-25T11:27:33.246Z,20.32
2023-05-25T11:30:00.516Z,20.41
2023-05-25T11:32:28.775Z,20.43
2023-05-25T11:34:58.137Z,20.47
2023-05-25T11:37:29.470Z,20.50
2023-05-25T11:39:55.962Z,20.56
2023-05-25T11:42:24.324Z,20.61
2023-05-25T11:44:51.332Z,20.69
2023-05-25T11:47:22.982Z,20.73
2023-05-25T11:49:50.244Z,20.79
2023-05-25T11:52:19.273Z,20.81
2023-05-25T11:54:46.391Z,20.84
2023-05-25T11:57:26.313Z,20.81
2023-05-25T11:59:54.446Z,20.86
2023-05-25T12:02:22.201Z,20.88
2023-05-25T12:05:04.678Z,20.86
2023-05-25T12:07:32.021Z,20.90
2023-05-25T12:10:09.879Z,20.87
2023-05-25T12:12:47.530Z,20.87
2023-05-25T12:15:22.311Z,20.87
2023-05-25T12:17:49.325Z,20.88
2023-05-25T12:20:17.490Z,20.87
2023-05-25T12:22:47.091Z,20.87
2023-05-25T12:25:16.465Z,20.89
2023-05-25T12:27:44.812Z,20.90
2023-05-25T12:30:11.733Z,20.90
2023-05-25T12:32:55.117Z,20.87
2023-05-25T12:35:21.892Z,20.90
2023-05-25T12:37:48.313Z,20.91
2023-05-25T12:40:20.567Z,20.89
2023-05-25T12:42:56.606Z,20.89
2023-05-25T12:45:23.620Z,20.93
2023-05-25T12:47:50.383Z,20.93
2023-05-25T12:50:17.979Z,20.94
2023-05-25T12:52:46.555Z,20.96
2023-05-25T12:55:25.982Z,20.96
2023-05-25T12:58:06.928Z,20.99
2023-05-25T13:00:41.387Z,21.04
2023-05-25T13:03:09.452Z,21.09
2023-05-25T13:05:37.510Z,21.13
2023-05-25T13:08:05.526Z,21.16
2023-05-25T13:10:36.679Z,21.18
2023-05-25T13:13:04.434Z,21.18
2023-05-25T13:15:30.914Z,21.19
2023-05-25T13:18:00.353Z,21.18
2023-05-25T13:20:31.293Z,21.18
2023-05-25T13:22:58.368Z,21.16
2023-05-25T13:25:28.118Z,21.15
2023-05-25T13:27:55.987Z,21.14
2023-05-25T13:30:23.133Z,21.14
2023-05-25T13:32:51.839Z,21.14
2023-05-25T13:35:23.930Z,21.16
2023-05-25T13:37:51.255Z,21.18
2023-05-25T13:40:18.456Z,21.21
2023-05-25T13:42:45.187Z,21.22
2023-05-25T13:45:11.901Z,21.24
2023-05-25T13:47:39.226Z,21.25
2023-05-25T13:50:07.296Z,21.25
2023-05-25T13:52:36.660Z,21.27
2023-05-25T13:55:03.295Z,21.27
2023-05-25T13:57:29.673Z,21.30
2023-05-25T13:59:56.221Z,21.35
2023-05-25T14:02:22.722Z,21.38
2023-05-25T14:04:49.360Z,21.41
2023-05-25T14:07:15.856Z,21.43
2023-05-25T14:09:42.427Z,21.46
2023-05-25T14:12:09.225Z,21.50
2023-05-25T14:14:35.657Z,21.55
2023-05-25T14:17:02.118Z,21.59
2023-05-25T14:19:29.803Z,21.62
2023-05-25T14:22:11.694Z,21.65
2023-05-25T14:24:39.699Z,21.68
2023-05-25T14:27:07.298Z,21.68
2023-05-25T14:29:34.016Z,21.68
2023-05-25T14:32:00.937Z,21.70
2023-05-25T14:34:27.880Z,21.73
2023-05-25T14:36:55.907Z,21.76
2023-05-25T14:39:22.464Z,21.79
2023-05-25T14:41:50.206Z,21.84
2023-05-25T14:44:16.837Z,21.89
2023-05-25T14:46:43.621Z,21.95
2023-05-25T14:49:14.223Z,22.00
2023-05-25T14:51:40.596Z,22.03
2023-05-25T14:54:08.314Z,22.09
2023-05-25T14:56:37.592Z,22.12
2023-05-25T14:59:04.058Z,22.13
2023-05-25T15:01:32.308Z,22.14
2023-05-25T15:03:58.945Z,22.15
2023-05-25T15:06:25.457Z,22.16
2023-05-25T15:08:52.076Z,22.16
2023-05-25T15:11:18.857Z,22.17
2023-05-25T15:13:46.149Z,22.18
2023-05-25T15:16:14.007Z,22.20
2023-05-25T15:18:40.533Z,22.22
2023-05-25T15:21:08.518Z,22.25
2023-05-25T15:23:35.060Z,22.25
2023-05-25T15:26:04.359Z,22.24
2023-05-25T15:28:31.425Z,22.23
2023-05-25T15:31:02.789Z,22.24
2023-05-25T15:33:47.141Z,22.26
2023-05-25T15:36:16.480Z,22.27
2023-05-25T15:38:45.849Z,22.28
2023-05-25T15:41:15.021Z,22.27
2023-05-25T15:43:44.179Z,22.31
2023-05-25T15:46:11.963Z,22.31
2023-05-25T15:48:39.186Z,22.31
2023-05-25T15:51:05.649Z,22.29
2023-05-25T15:53:33.525Z,22.28
2023-05-25T15:55:59.946Z,22.27
2023-05-25T15:58:26.353Z,22.27
2023-05-25T16:00:53.827Z,22.27
2023-05-25T16:03:20.267Z,22.27
2023-05-25T16:05:46.858Z,22.31
2023-05-25T16:08:14.238Z,22.33
2023-05-25T16:10:40.688Z,22.35
2023-05-25T16:13:07.361Z,22.38
2023-05-25T16:15:34.311Z,22.38
2023-05-25T16:18:01.448Z,22.40
2023-05-25T16:20:27.998Z,22.41
2023-05-25T16:22:54.779Z,22.40
2023-05-25T16:25:21.497Z,22.40
2023-05-25T16:27:47.850Z,22.41
2023-05-25T16:30:14.651Z,22.42
2023-05-25T16:32:41.372Z,22.42
2023-05-25T16:35:09.304Z,22.44
2023-05-25T16:37:36.085Z,22.47
2023-05-25T16:40:02.634Z,22.51
2023-05-25T16:42:33.352Z,22.54
2023-05-25T16:44:59.723Z,22.58
2023-05-25T16:47:26.131Z,22.63
2023-05-25T16:49:52.750Z,22.65
2023-05-25T16:52:19.115Z,22.70
2023-05-25T16:54:45.617Z,22.71
2023-05-25T16:57:12.158Z,22.72
2023-05-25T16:59:39.561Z,22.74
2023-05-25T17:02:06.611Z,22.75
2023-05-25T17:04:33.046Z,22.73
2023-05-25T17:06:59.513Z,22.74
2023-05-25T17:09:27.277Z,22.72
2023-05-25T17:11:54.186Z,22.74
2023-05-25T17:14:20.751Z,22.71
2023-05-25T17:16:47.388Z,22.69
2023-05-25T17:19:15.208Z,22.67
2023-05-25T17:21:41.947Z,22.67
2023-05-25T17:24:08.488Z,22.67
2023-05-25T17:26:35.214Z,22.66
2023-05-25T17:29:03.139Z,22.64
2023-05-25T17:31:30.258Z,22.65
2023-05-25T17:33:56.813Z,22.64
2023-05-25T17:36:23.530Z,22.62
2023-05-25T17:38:50.186Z,22.64
2023-05-25T17:41:17.210Z,22.62
2023-05-25T17:43:46.259Z,22.62
2023-05-25T17:46:12.749Z,22.62
2023-05-25T17:48:39.591Z,22.61
2023-05-25T17:51:06.043Z,22.60
2023-05-25T17:53:32.695Z,22.59
2023-05-25T17:56:01.538Z,22.61
2023-05-25T17:58:27.913Z,22.61
2023-05-25T18:00:54.384Z,22.60
2023-05-25T18:03:22.341Z,22.60
2023-05-25T18:05:48.789Z,22.59
2023-05-25T18:08:15.775Z,22.60
2023-05-25T18:10:42.411Z,22.58
2023-05-25T18:13:09.915Z,22.58
2023-05-25T18:15:36.349Z,22.57
2023-05-25T18:18:05.821Z,22.54
2023-05-25T18:20:32.657Z,22.53
2023-05-25T18:23:00.663Z,22.52
2023-05-25T18:25:27.366Z,22.50
2023-05-25T18:27:53.757Z,22.48
2023-05-25T18:30:20.253Z,22.46
2023-05-25T18:32:47.033Z,22.44
2023-05-25T18:35:14.574Z,22.42
2023-05-25T18:37:41.145Z,22.39
2023-05-25T18:40:08.460Z,22.37
2023-05-25T18:42:35.309Z,22.34
2023-05-25T18:45:01.948Z,22.31
2023-05-25T18:47:28.420Z,22.28
2023-05-25T18:49:54.954Z,22.25
2023-05-25T18:52:22.548Z,22.23
2023-05-25T18:54:49.587Z,22.20
2023-05-25T18:57:17.785Z,22.17
2023-05-25T18:59:45.655Z,22.14
2023-05-25T19:02:12.317Z,22.11
2023-05-25T19:04:39.084Z,22.08
2023-05-25T19:07:05.474Z,22.04
2023-05-25T19:09:31.891Z,22.00
2023-05-25T19:11:58.338Z,21.94
2023-05-25T19:14:26.205Z,21.88
2023-05-25T19:16:52.732Z,21.85
2023-05-25T19:19:19.213Z,21.80
2023-05-25T19:21:45.921Z,21.74
2023-05-25T19:24:12.945Z,21.69
2023-05-25T19:26:39.384Z,21.62
2023-05-25T19:29:06.931Z,21.55
2023-05-25T19:31:34.899Z,21.49
2023-05-25T19:34:01.444Z,21.45
2023-05-25T19:36:28.241Z,21.39
2023-05-25T19:38:54.855Z,21.34
2023-05-25T19:41:21.261Z,21.28
2023-05-25T19:43:47.938Z,21.23
2023-05-25T19:46:15.593Z,21.18
2023-05-25T19:48:42.553Z,21.12
2023-05-25T19:51:09.003Z,21.07
2023-05-25T19:53:36.824Z,21.00
2023-05-25T19:56:03.447Z,20.94
2023-05-25T19:58:29.870Z,20.87
2023-05-25T20:00:57.558Z,20.81
2023-05-25T20:03:24.149Z,20.75
2023-05-25T20:05:50.721Z,20.69
2023-05-25T20:08:17.470Z,20.64
2023-05-25T20:10:45.067Z,20.59
2023-05-25T20:13:12.493Z,20.54
2023-05-25T20:15:39.175Z,20.50
2023-05-25T20:18:07.735Z,20.47
2023-05-25T20:20:34.458Z,20.46
2023-05-25T20:23:01.464Z,20.46
2023-05-25T20:25:28.741Z,20.42
2023-05-25T20:27:55.476Z,20.39
2023-05-25T20:30:22.056Z,20.36
2023-05-25T20:32:49.346Z,20.32
2023-05-25T20:35:30.106Z,20.29
2023-05-25T20:37:56.809Z,20.29
2023-05-25T20:40:23.178Z,20.28
2023-05-25T20:42:49.588Z,20.27
2023-05-25T20:45:16.362Z,20.27
2023-05-25T20:47:42.843Z,20.27
2023-05-25T20:50:09.512Z,20.26
2023-05-25T20:52:36.268Z,20.26
2023-05-25T20:55:02.754Z,20.24
2023-05-25T20:57:30.020Z,20.22
2023-05-25T20:59:59.674Z,20.19
2023-05-25T21:02:28.303Z,20.17
2023-05-25T21:04:54.888Z,20.16
2023-05-25T21:07:21.786Z,20.17
2023-05-25T21:09:48.411Z,20.13
2023-05-25T21:12:14.933Z,20.09
2023-05-25T21:14:43.881Z,20.05
2023-05-25T21:17:10.662Z,20.02
2023-05-25T21:19:37.976Z,20.00
2023-05-25T21:22:04.770Z,19.97
2023-05-25T21:24:32.342Z,19.94
2023-05-25T21:26:58.701Z,19.92
2023-05-25T21:29:25.078Z,19.88
2023-05-25T21:31:52.603Z,19.85
2023-05-25T21:34:19.138Z,19.82
2023-05-25T21:36:45.797Z,19.78
2023-05-25T21:39:12.298Z,19.74
2023-05-25T21:41:38.786Z,19.70
2023-05-25T21:44:05.273Z,19.67
2023-05-25T21:46:32.819Z,19.61
2023-05-25T21:48:59.458Z,19.58
2023-05-25T21:51:25.906Z,19.52
2023-05-25T21:53:52.622Z,19.48
2023-05-25T21:56:18.977Z,19.43
2023-05-25T21:58:47.619Z,19.39
2023-05-25T22:01:14.039Z,19.35
2023-05-25T22:03:40.587Z,19.33
2023-05-25T22:06:08.879Z,19.26
2023-05-25T22:08:35.754Z,19.19
2023-05-25T22:11:02.198Z,19.13
2023-05-25T22:13:29.780Z,19.07
2023-05-25T22:15:56.208Z,19.00
2023-05-25T22:18:22.612Z,18.95
2023-05-25T22:20:49.087Z,18.91
2023-05-25T22:23:15.901Z,18.86
2023-05-25T22:25:42.516Z,18.82
2023-05-25T22:28:10.276Z,18.76
2023-05-25T22:30:36.767Z,18.72
2023-05-25T22:33:05.237Z,18.65
2023-05-25T22:35:31.725Z,18.61
2023-05-25T22:37:58.118Z,18.56
2023-05-25T22:40:25.125Z,18.50
2023-05-25T22:42:51.903Z,18.45
2023-05-25T22:45:19.948Z,18.39
2023-05-25T22:47:46.577Z,18.35
2023-05-25T22:50:13.361Z,18.31
2023-05-25T22:52:42.832Z,18.27
2023-05-25T22:55:09.767Z,18.24
2023-05-25T22:57:36.598Z,18.21
2023-05-25T23:00:05.536Z,18.15
2023-05-25T23:02:32.068Z,18.12
2023-05-25T23:04:58.786Z,18.09
2023-05-25T23:07:25.298Z,18.06
2023-05-25T23:09:51.957Z,18.02
2023-05-25T23:12:18.365Z,17.97
2023-05-25T23:14:45.043Z,17.93
2023-05-25T23:17:11.494Z,17.91
2023-05-25T23:19:38.625Z,17.86
2023-05-25T23:22:05.290Z,17.83
2023-05-25T23:24:31.720Z,17.79
2023-05-25T23:26:58.077Z,17.76
2023-05-25T23:29:24.441Z,17.71
2023-05-25T23:31:50.844Z,17.68
2023-05-25T23:34:17.316Z,17.65
2023-05-25T23:36:43.820Z,17.63
2023-05-25T23:39:10.342Z,17.59
2023-05-25T23:41:37.132Z,17.59
2023-05-25T23:44:03.762Z,17.56
2023-05-25T23:46:33.365Z,17.57
2023-05-25T23:48:59.796Z,17.58
2023-05-25T23:51:26.376Z,17.57
2023-05-25T23:53:52.760Z,17.57
2023-05-25T23:56:19.286Z,17.58
2023-05-25T23:58:45.889Z,17.57
